sensor_id;sensor_type;location;lat;lon;timestamp;temperature;humidity
12588;DHT22;6359;51.450;7.346;2022-08-03T00:01:36;17.20;99.90
12588;DHT22;6359;51.450;7.346;2022-08-03T00:04:04;17.10;99.90
12588;DHT22;6359;51.450;7.346;2022-08-03T00:06:31;17.10;99.90
12588;DHT22;6359;51.450;7.346;2022-08-03T00:08:59;17.10;99.90
12588;DHT22;6359;51.450;7.346;2022-08-03T00:11:26;17.10;99.90
12588;DHT22;6359;51.450;7.346;2022-08-03T00:13:53;17.00;99.90
12588;DHT22;6359;51.450;7.346;2022-08-03T00:16:20;17.00;99.90
12588;DHT22;6359;51.450;7.346;2022-08-03T00:18:47;17.00;99.90
12588;DHT22;6359;51.450;7.346;2022-08-03T00:21:14;16.90;99.90
12588;DHT22;6359;51.450;7.346;2022-08-03T00:23:41;16.90;99.90
12588;DHT22;6359;51.450;7.346;2022-08-03T00:26:09;16.90;99.90
12588;DHT22;6359;51.450;7.346;2022-08-03T00:28:36;16.90;99.90
12588;DHT22;6359;51.450;7.346;2022-08-03T00:31:03;16.90;99.90
12588;DHT22;6359;51.450;7.346;2022-08-03T00:33:30;16.90;99.90
12588;DHT22;6359;51.450;7.346;2022-08-03T00:35:58;16.90;99.90
12588;DHT22;6359;51.450;7.346;2022-08-03T00:38:24;16.80;99.90
12588;DHT22;6359;51.450;7.346;2022-08-03T00:40:51;16.80;99.90
12588;DHT22;6359;51.450;7.346;2022-08-03T00:43:24;16.80;99.90
12588;DHT22;6359;51.450;7.346;2022-08-03T00:45:51;16.80;99.90
12588;DHT22;6359;51.450;7.346;2022-08-03T00:48:19;16.80;99.90
12588;DHT22;6359;51.450;7.346;2022-08-03T00:50:46;16.70;99.90
12588;DHT22;6359;51.450;7.346;2022-08-03T00:53:13;16.70;99.90
12588;DHT22;6359;51.450;7.346;2022-08-03T00:55:41;16.70;99.90
12588;DHT22;6359;51.450;7.346;2022-08-03T00:58:09;16.60;99.90
12588;DHT22;6359;51.450;7.346;2022-08-03T01:00:39;16.60;99.90
12588;DHT22;6359;51.450;7.346;2022-08-03T01:03:06;16.60;99.90
12588;DHT22;6359;51.450;7.346;2022-08-03T01:05:39;16.60;99.90
12588;DHT22;6359;51.450;7.346;2022-08-03T01:08:17;16.60;99.90
12588;DHT22;6359;51.450;7.346;2022-08-03T01:10:51;16.60;99.90
12588;DHT22;6359;51.450;7.346;2022-08-03T01:13:26;16.60;99.90
12588;DHT22;6359;51.450;7.346;2022-08-03T01:16:01;16.60;99.90
12588;DHT22;6359;51.450;7.346;2022-08-03T01:18:35;16.60;99.90
12588;DHT22;6359;51.450;7.346;2022-08-03T01:21:07;16.50;99.90
12588;DHT22;6359;51.450;7.346;2022-08-03T01:23:57;16.50;99.90
12588;DHT22;6359;51.450;7.346;2022-08-03T01:29:51;16.50;99.90
12588;DHT22;6359;51.450;7.346;2022-08-03T01:32:21;16.50;99.90
12588;DHT22;6359;51.450;7.346;2022-08-03T01:34:54;16.50;99.90
12588;DHT22;6359;51.450;7.346;2022-08-03T01:37:25;16.40;99.90
12588;DHT22;6359;51.450;7.346;2022-08-03T01:39:55;16.40;99.90
12588;DHT22;6359;51.450;7.346;2022-08-03T01:42:24;16.40;99.90
12588;DHT22;6359;51.450;7.346;2022-08-03T01:44:54;16.40;99.90
12588;DHT22;6359;51.450;7.346;2022-08-03T01:47:24;16.30;99.90
12588;DHT22;6359;51.450;7.346;2022-08-03T01:49:52;16.40;99.90
12588;DHT22;6359;51.450;7.346;2022-08-03T01:52:21;16.40;99.90
12588;DHT22;6359;51.450;7.346;2022-08-03T01:54:50;16.40;99.90
12588;DHT22;6359;51.450;7.346;2022-08-03T01:57:18;16.30;99.90
12588;DHT22;6359;51.450;7.346;2022-08-03T01:59:48;16.30;99.90
12588;DHT22;6359;51.450;7.346;2022-08-03T02:02:17;16.20;99.90
12588;DHT22;6359;51.450;7.346;2022-08-03T02:04:46;16.20;99.90
12588;DHT22;6359;51.450;7.346;2022-08-03T02:07:15;16.20;99.90
12588;DHT22;6359;51.450;7.346;2022-08-03T02:09:44;16.10;99.90
12588;DHT22;6359;51.450;7.346;2022-08-03T02:12:13;16.10;99.90
12588;DHT22;6359;51.450;7.346;2022-08-03T02:14:40;16.10;99.90
12588;DHT22;6359;51.450;7.346;2022-08-03T02:17:08;16.10;99.90
12588;DHT22;6359;51.450;7.346;2022-08-03T02:19:38;16.10;99.90
12588;DHT22;6359;51.450;7.346;2022-08-03T02:22:09;16.10;99.90
12588;DHT22;6359;51.450;7.346;2022-08-03T02:24:36;16.10;99.90
12588;DHT22;6359;51.450;7.346;2022-08-03T02:27:07;16.10;99.90
12588;DHT22;6359;51.450;7.346;2022-08-03T02:29:38;16.20;99.90
12588;DHT22;6359;51.450;7.346;2022-08-03T02:32:09;16.20;99.90
12588;DHT22;6359;51.450;7.346;2022-08-03T02:34:39;16.10;99.90
12588;DHT22;6359;51.450;7.346;2022-08-03T02:37:09;16.10;99.90
12588;DHT22;6359;51.450;7.346;2022-08-03T02:39:39;16.00;99.90
12588;DHT22;6359;51.450;7.346;2022-08-03T02:42:08;16.00;99.90
12588;DHT22;6359;51.450;7.346;2022-08-03T02:44:36;16.00;99.90
12588;DHT22;6359;51.450;7.346;2022-08-03T02:47:08;15.90;99.90
12588;DHT22;6359;51.450;7.346;2022-08-03T02:49:38;16.00;99.90
12588;DHT22;6359;51.450;7.346;2022-08-03T02:52:09;15.90;99.90
12588;DHT22;6359;51.450;7.346;2022-08-03T02:54:37;15.90;99.90
12588;DHT22;6359;51.450;7.346;2022-08-03T02:57:07;15.80;99.90
12588;DHT22;6359;51.450;7.346;2022-08-03T02:59:45;15.80;99.90
12588;DHT22;6359;51.450;7.346;2022-08-03T03:02:20;15.80;99.90
12588;DHT22;6359;51.450;7.346;2022-08-03T03:04:50;15.80;99.90
12588;DHT22;6359;51.450;7.346;2022-08-03T03:07:18;15.80;99.90
12588;DHT22;6359;51.450;7.346;2022-08-03T03:09:46;15.80;99.90
12588;DHT22;6359;51.450;7.346;2022-08-03T03:12:14;15.90;99.90
12588;DHT22;6359;51.450;7.346;2022-08-03T03:14:42;15.90;99.90
12588;DHT22;6359;51.450;7.346;2022-08-03T03:17:11;15.90;99.90
12588;DHT22;6359;51.450;7.346;2022-08-03T03:19:38;15.90;99.90
12588;DHT22;6359;51.450;7.346;2022-08-03T03:22:07;15.90;99.90
12588;DHT22;6359;51.450;7.346;2022-08-03T03:24:35;15.90;99.90
12588;DHT22;6359;51.450;7.346;2022-08-03T03:27:02;15.90;99.90
12588;DHT22;6359;51.450;7.346;2022-08-03T03:29:31;15.80;99.90
12588;DHT22;6359;51.450;7.346;2022-08-03T03:31:59;15.80;99.90
12588;DHT22;6359;51.450;7.346;2022-08-03T03:34:28;15.70;99.90
12588;DHT22;6359;51.450;7.346;2022-08-03T03:36:55;15.70;99.90
12588;DHT22;6359;51.450;7.346;2022-08-03T03:39:24;15.80;99.90
12588;DHT22;6359;51.450;7.346;2022-08-03T03:41:51;15.80;99.90
12588;DHT22;6359;51.450;7.346;2022-08-03T03:44:18;15.70;99.90
12588;DHT22;6359;51.450;7.346;2022-08-03T03:46:45;15.70;99.90
12588;DHT22;6359;51.450;7.346;2022-08-03T03:49:12;15.70;99.90
12588;DHT22;6359;51.450;7.346;2022-08-03T03:51:39;15.70;99.90
12588;DHT22;6359;51.450;7.346;2022-08-03T03:54:05;15.70;99.90
12588;DHT22;6359;51.450;7.346;2022-08-03T03:56:34;15.80;99.90
12588;DHT22;6359;51.450;7.346;2022-08-03T03:59:01;15.80;99.90
12588;DHT22;6359;51.450;7.346;2022-08-03T04:01:28;15.80;99.90
12588;DHT22;6359;51.450;7.346;2022-08-03T04:03:55;15.80;99.90
12588;DHT22;6359;51.450;7.346;2022-08-03T04:06:22;15.80;99.90
12588;DHT22;6359;51.450;7.346;2022-08-03T04:09:08;15.80;99.90
12588;DHT22;6359;51.450;7.346;2022-08-03T04:11:57;15.80;99.90
12588;DHT22;6359;51.450;7.346;2022-08-03T04:14:28;15.80;99.90
12588;DHT22;6359;51.450;7.346;2022-08-03T04:17:00;15.80;99.90
12588;DHT22;6359;51.450;7.346;2022-08-03T04:19:31;15.80;99.90
12588;DHT22;6359;51.450;7.346;2022-08-03T04:22:01;15.90;99.90
12588;DHT22;6359;51.450;7.346;2022-08-03T04:24:32;16.00;99.90
12588;DHT22;6359;51.450;7.346;2022-08-03T04:27:04;16.10;99.90
12588;DHT22;6359;51.450;7.346;2022-08-03T04:29:33;16.20;99.90
12588;DHT22;6359;51.450;7.346;2022-08-03T04:32:02;16.30;99.90
12588;DHT22;6359;51.450;7.346;2022-08-03T04:34:31;16.40;99.90
12588;DHT22;6359;51.450;7.346;2022-08-03T04:37:00;16.40;99.90
12588;DHT22;6359;51.450;7.346;2022-08-03T04:39:30;16.40;99.90
12588;DHT22;6359;51.450;7.346;2022-08-03T04:42:03;16.50;99.90
12588;DHT22;6359;51.450;7.346;2022-08-03T04:44:30;16.50;99.90
12588;DHT22;6359;51.450;7.346;2022-08-03T04:47:01;16.60;99.90
12588;DHT22;6359;51.450;7.346;2022-08-03T04:49:29;16.70;99.90
12588;DHT22;6359;51.450;7.346;2022-08-03T04:51:56;16.70;99.90
12588;DHT22;6359;51.450;7.346;2022-08-03T04:54:23;16.80;99.90
12588;DHT22;6359;51.450;7.346;2022-08-03T04:56:49;16.90;99.90
12588;DHT22;6359;51.450;7.346;2022-08-03T04:59:18;17.10;99.90
12588;DHT22;6359;51.450;7.346;2022-08-03T05:01:45;17.20;99.90
12588;DHT22;6359;51.450;7.346;2022-08-03T05:04:12;17.30;99.90
12588;DHT22;6359;51.450;7.346;2022-08-03T05:06:39;17.50;99.90
12588;DHT22;6359;51.450;7.346;2022-08-03T05:09:05;17.60;99.90
12588;DHT22;6359;51.450;7.346;2022-08-03T05:11:32;17.70;99.90
12588;DHT22;6359;51.450;7.346;2022-08-03T05:13:59;17.80;99.90
12588;DHT22;6359;51.450;7.346;2022-08-03T05:16:28;17.90;99.90
12588;DHT22;6359;51.450;7.346;2022-08-03T05:18:55;18.00;99.90
12588;DHT22;6359;51.450;7.346;2022-08-03T05:21:21;18.10;99.90
12588;DHT22;6359;51.450;7.346;2022-08-03T05:23:48;18.20;99.90
12588;DHT22;6359;51.450;7.346;2022-08-03T05:26:15;18.30;99.90
12588;DHT22;6359;51.450;7.346;2022-08-03T05:28:42;18.40;99.90
12588;DHT22;6359;51.450;7.346;2022-08-03T05:31:09;18.60;99.90
12588;DHT22;6359;51.450;7.346;2022-08-03T05:33:39;18.70;99.90
12588;DHT22;6359;51.450;7.346;2022-08-03T05:36:08;18.90;99.90
12588;DHT22;6359;51.450;7.346;2022-08-03T05:38:35;19.20;99.90
12588;DHT22;6359;51.450;7.346;2022-08-03T05:41:02;19.50;99.90
12588;DHT22;6359;51.450;7.346;2022-08-03T05:43:29;19.70;99.90
12588;DHT22;6359;51.450;7.346;2022-08-03T05:45:57;20.00;99.90
12588;DHT22;6359;51.450;7.346;2022-08-03T05:48:25;20.20;99.90
12588;DHT22;6359;51.450;7.346;2022-08-03T05:50:54;20.60;99.90
12588;DHT22;6359;51.450;7.346;2022-08-03T05:53:21;21.50;99.90
12588;DHT22;6359;51.450;7.346;2022-08-03T05:55:48;23.00;99.90
12588;DHT22;6359;51.450;7.346;2022-08-03T05:58:15;24.60;99.90
12588;DHT22;6359;51.450;7.346;2022-08-03T06:00:42;26.20;99.90
12588;DHT22;6359;51.450;7.346;2022-08-03T06:03:09;27.30;99.90
12588;DHT22;6359;51.450;7.346;2022-08-03T06:05:36;27.80;99.90
12588;DHT22;6359;51.450;7.346;2022-08-03T06:08:05;28.00;99.90
12588;DHT22;6359;51.450;7.346;2022-08-03T06:10:31;28.00;99.90
12588;DHT22;6359;51.450;7.346;2022-08-03T06:12:59;27.90;99.90
12588;DHT22;6359;51.450;7.346;2022-08-03T06:15:25;28.60;99.90
12588;DHT22;6359;51.450;7.346;2022-08-03T06:17:53;28.70;99.90
12588;DHT22;6359;51.450;7.346;2022-08-03T06:20:21;28.80;99.90
12588;DHT22;6359;51.450;7.346;2022-08-03T06:22:48;29.70;99.90
12588;DHT22;6359;51.450;7.346;2022-08-03T06:25:17;31.30;99.90
12588;DHT22;6359;51.450;7.346;2022-08-03T06:27:44;31.90;99.90
12588;DHT22;6359;51.450;7.346;2022-08-03T06:30:11;31.80;99.90
12588;DHT22;6359;51.450;7.346;2022-08-03T06:32:39;32.00;99.90
12588;DHT22;6359;51.450;7.346;2022-08-03T06:35:06;32.20;99.90
12588;DHT22;6359;51.450;7.346;2022-08-03T06:37:41;32.40;99.50
12588;DHT22;6359;51.450;7.346;2022-08-03T06:40:10;32.50;99.20
12588;DHT22;6359;51.450;7.346;2022-08-03T06:42:38;33.30;97.20
12588;DHT22;6359;51.450;7.346;2022-08-03T06:45:07;32.90;96.80
12588;DHT22;6359;51.450;7.346;2022-08-03T06:47:34;32.80;97.00
12588;DHT22;6359;51.450;7.346;2022-08-03T06:50:01;33.40;95.30
12588;DHT22;6359;51.450;7.346;2022-08-03T06:52:28;33.80;94.60
12588;DHT22;6359;51.450;7.346;2022-08-03T06:54:56;33.80;94.10
12588;DHT22;6359;51.450;7.346;2022-08-03T06:57:23;34.30;92.80
12588;DHT22;6359;51.450;7.346;2022-08-03T06:59:51;34.90;92.60
12588;DHT22;6359;51.450;7.346;2022-08-03T07:02:18;35.10;90.80
12588;DHT22;6359;51.450;7.346;2022-08-03T07:04:45;35.40;90.30
12588;DHT22;6359;51.450;7.346;2022-08-03T07:07:12;35.50;90.40
12588;DHT22;6359;51.450;7.346;2022-08-03T07:09:39;35.40;88.70
12588;DHT22;6359;51.450;7.346;2022-08-03T07:12:06;35.70;86.00
12588;DHT22;6359;51.450;7.346;2022-08-03T07:14:33;36.30;86.60
12588;DHT22;6359;51.450;7.346;2022-08-03T07:17:01;35.70;84.30
12588;DHT22;6359;51.450;7.346;2022-08-03T07:19:28;35.70;84.70
12588;DHT22;6359;51.450;7.346;2022-08-03T07:21:55;35.70;84.10
12588;DHT22;6359;51.450;7.346;2022-08-03T07:24:23;36.00;83.60
12588;DHT22;6359;51.450;7.346;2022-08-03T07:26:50;36.40;81.20
12588;DHT22;6359;51.450;7.346;2022-08-03T07:29:17;37.00;79.30
12588;DHT22;6359;51.450;7.346;2022-08-03T07:31:44;36.60;81.70
12588;DHT22;6359;51.450;7.346;2022-08-03T07:34:13;37.10;79.80
12588;DHT22;6359;51.450;7.346;2022-08-03T07:36:40;37.20;75.70
12588;DHT22;6359;51.450;7.346;2022-08-03T07:39:06;37.70;73.70
12588;DHT22;6359;51.450;7.346;2022-08-03T07:41:33;38.00;72.60
12588;DHT22;6359;51.450;7.346;2022-08-03T07:44:00;37.80;72.20
12588;DHT22;6359;51.450;7.346;2022-08-03T07:46:27;37.80;74.50
12588;DHT22;6359;51.450;7.346;2022-08-03T07:48:55;37.90;73.20
12588;DHT22;6359;51.450;7.346;2022-08-03T07:51:23;38.10;70.70
12588;DHT22;6359;51.450;7.346;2022-08-03T07:53:50;37.60;71.70
12588;DHT22;6359;51.450;7.346;2022-08-03T07:56:17;37.90;68.40
12588;DHT22;6359;51.450;7.346;2022-08-03T07:58:44;38.10;70.20
12588;DHT22;6359;51.450;7.346;2022-08-03T08:01:11;38.10;69.10
12588;DHT22;6359;51.450;7.346;2022-08-03T08:03:38;37.40;68.10
12588;DHT22;6359;51.450;7.346;2022-08-03T08:06:05;37.40;70.20
12588;DHT22;6359;51.450;7.346;2022-08-03T08:08:33;37.40;68.10
12588;DHT22;6359;51.450;7.346;2022-08-03T08:11:00;37.60;69.10
12588;DHT22;6359;51.450;7.346;2022-08-03T08:13:27;37.70;66.20
12588;DHT22;6359;51.450;7.346;2022-08-03T08:15:54;37.60;68.50
12588;DHT22;6359;51.450;7.346;2022-08-03T08:18:21;37.10;67.90
12588;DHT22;6359;51.450;7.346;2022-08-03T08:20:49;36.20;69.20
12588;DHT22;6359;51.450;7.346;2022-08-03T08:23:16;35.20;70.60
12588;DHT22;6359;51.450;7.346;2022-08-03T08:25:49;35.40;69.00
12588;DHT22;6359;51.450;7.346;2022-08-03T08:28:17;36.10;68.90
12588;DHT22;6359;51.450;7.346;2022-08-03T08:30:44;36.30;68.10
12588;DHT22;6359;51.450;7.346;2022-08-03T08:33:12;36.90;66.70
12588;DHT22;6359;51.450;7.346;2022-08-03T08:35:39;36.80;66.50
12588;DHT22;6359;51.450;7.346;2022-08-03T08:38:06;37.10;64.90
12588;DHT22;6359;51.450;7.346;2022-08-03T08:40:33;36.20;66.00
12588;DHT22;6359;51.450;7.346;2022-08-03T08:43:01;35.40;68.70
12588;DHT22;6359;51.450;7.346;2022-08-03T08:45:28;35.20;68.40
12588;DHT22;6359;51.450;7.346;2022-08-03T08:47:56;35.60;69.50
12588;DHT22;6359;51.450;7.346;2022-08-03T08:50:24;36.00;67.60
12588;DHT22;6359;51.450;7.346;2022-08-03T08:52:53;36.70;68.40
12588;DHT22;6359;51.450;7.346;2022-08-03T08:55:22;36.60;67.60
12588;DHT22;6359;51.450;7.346;2022-08-03T08:57:52;36.80;66.80
12588;DHT22;6359;51.450;7.346;2022-08-03T09:00:24;36.70;65.40
12588;DHT22;6359;51.450;7.346;2022-08-03T09:02:52;37.00;65.20
12588;DHT22;6359;51.450;7.346;2022-08-03T09:05:19;36.50;65.40
12588;DHT22;6359;51.450;7.346;2022-08-03T09:07:46;36.00;67.50
12588;DHT22;6359;51.450;7.346;2022-08-03T09:10:16;36.40;65.50
12588;DHT22;6359;51.450;7.346;2022-08-03T09:12:45;36.60;66.10
12588;DHT22;6359;51.450;7.346;2022-08-03T09:15:20;36.40;66.00
12588;DHT22;6359;51.450;7.346;2022-08-03T09:17:49;37.10;66.80
12588;DHT22;6359;51.450;7.346;2022-08-03T09:20:17;37.10;66.30
12588;DHT22;6359;51.450;7.346;2022-08-03T09:22:52;37.10;65.50
12588;DHT22;6359;51.450;7.346;2022-08-03T09:25:26;37.30;64.90
12588;DHT22;6359;51.450;7.346;2022-08-03T09:27:54;37.50;62.90
12588;DHT22;6359;51.450;7.346;2022-08-03T09:30:29;37.40;64.10
12588;DHT22;6359;51.450;7.346;2022-08-03T09:33:00;37.20;66.00
12588;DHT22;6359;51.450;7.346;2022-08-03T09:35:28;37.30;66.10
12588;DHT22;6359;51.450;7.346;2022-08-03T09:38:08;37.40;63.20
12588;DHT22;6359;51.450;7.346;2022-08-03T09:40:35;37.50;63.50
12588;DHT22;6359;51.450;7.346;2022-08-03T09:43:02;37.00;63.50
12588;DHT22;6359;51.450;7.346;2022-08-03T09:45:33;36.80;64.10
12588;DHT22;6359;51.450;7.346;2022-08-03T09:48:19;36.60;63.80
12588;DHT22;6359;51.450;7.346;2022-08-03T09:50:50;37.50;63.70
12588;DHT22;6359;51.450;7.346;2022-08-03T09:53:18;37.60;62.90
12588;DHT22;6359;51.450;7.346;2022-08-03T09:55:53;37.90;62.60
12588;DHT22;6359;51.450;7.346;2022-08-03T09:58:20;37.90;61.70
12588;DHT22;6359;51.450;7.346;2022-08-03T10:00:55;38.00;62.80
12588;DHT22;6359;51.450;7.346;2022-08-03T10:03:24;38.00;63.10
12588;DHT22;6359;51.450;7.346;2022-08-03T10:05:52;37.80;62.80
12588;DHT22;6359;51.450;7.346;2022-08-03T10:08:19;37.00;63.60
12588;DHT22;6359;51.450;7.346;2022-08-03T10:10:47;36.80;65.20
12588;DHT22;6359;51.450;7.346;2022-08-03T10:13:15;37.40;62.90
12588;DHT22;6359;51.450;7.346;2022-08-03T10:15:42;37.20;62.80
12588;DHT22;6359;51.450;7.346;2022-08-03T10:18:09;37.00;62.00
12588;DHT22;6359;51.450;7.346;2022-08-03T10:20:50;34.90;61.30
12588;DHT22;6359;51.450;7.346;2022-08-03T10:23:17;37.00;60.80
12588;DHT22;6359;51.450;7.346;2022-08-03T10:25:46;37.10;60.90
12588;DHT22;6359;51.450;7.346;2022-08-03T10:28:17;37.30;65.60
12588;DHT22;6359;51.450;7.346;2022-08-03T10:30:47;37.50;60.90
12588;DHT22;6359;51.450;7.346;2022-08-03T10:33:17;37.50;63.80
12588;DHT22;6359;51.450;7.346;2022-08-03T10:35:49;36.90;63.40
12588;DHT22;6359;51.450;7.346;2022-08-03T10:38:18;36.90;64.40
12588;DHT22;6359;51.450;7.346;2022-08-03T10:40:46;37.10;63.40
12588;DHT22;6359;51.450;7.346;2022-08-03T10:43:18;36.60;59.80
12588;DHT22;6359;51.450;7.346;2022-08-03T10:45:45;36.30;64.20
12588;DHT22;6359;51.450;7.346;2022-08-03T10:48:12;36.30;60.60
12588;DHT22;6359;51.450;7.346;2022-08-03T10:50:40;36.90;61.90
12588;DHT22;6359;51.450;7.346;2022-08-03T10:53:10;36.80;64.50
12588;DHT22;6359;51.450;7.346;2022-08-03T10:55:38;37.30;63.70
12588;DHT22;6359;51.450;7.346;2022-08-03T10:58:48;36.90;61.50
12588;DHT22;6359;51.450;7.346;2022-08-03T11:01:16;36.70;60.60
12588;DHT22;6359;51.450;7.346;2022-08-03T11:04:14;36.70;62.30
12588;DHT22;6359;51.450;7.346;2022-08-03T11:06:41;36.50;77.30
12588;DHT22;6359;51.450;7.346;2022-08-03T11:09:20;36.40;75.80
12588;DHT22;6359;51.450;7.346;2022-08-03T11:11:47;36.10;77.30
12588;DHT22;6359;51.450;7.346;2022-08-03T11:14:14;36.20;79.50
12588;DHT22;6359;51.450;7.346;2022-08-03T11:16:42;36.20;75.60
12588;DHT22;6359;51.450;7.346;2022-08-03T11:19:10;36.10;77.70
12588;DHT22;6359;51.450;7.346;2022-08-03T11:21:57;36.30;76.70
12588;DHT22;6359;51.450;7.346;2022-08-03T11:27:20;36.00;73.80
12588;DHT22;6359;51.450;7.346;2022-08-03T11:29:59;35.70;67.90
12588;DHT22;6359;51.450;7.346;2022-08-03T11:32:52;35.40;65.40
12588;DHT22;6359;51.450;7.346;2022-08-03T11:35:20;34.90;69.70
12588;DHT22;6359;51.450;7.346;2022-08-03T11:38:10;34.80;89.20
12588;DHT22;6359;51.450;7.346;2022-08-03T11:40:41;34.40;71.20
12588;DHT22;6359;51.450;7.346;2022-08-03T11:43:46;34.50;81.40
12588;DHT22;6359;51.450;7.346;2022-08-03T11:46:13;34.30;70.40
12588;DHT22;6359;51.450;7.346;2022-08-03T11:48:46;34.00;86.20
12588;DHT22;6359;51.450;7.346;2022-08-03T11:51:21;33.90;86.50
12588;DHT22;6359;51.450;7.346;2022-08-03T11:53:52;33.40;77.30
12588;DHT22;6359;51.450;7.346;2022-08-03T11:56:19;33.80;90.00
12588;DHT22;6359;51.450;7.346;2022-08-03T11:58:48;33.90;90.10
12588;DHT22;6359;51.450;7.346;2022-08-03T12:01:17;33.90;91.10
12588;DHT22;6359;51.450;7.346;2022-08-03T12:03:44;34.20;89.90
12588;DHT22;6359;51.450;7.346;2022-08-03T12:06:12;34.20;87.00
12588;DHT22;6359;51.450;7.346;2022-08-03T12:08:41;34.40;89.30
12588;DHT22;6359;51.450;7.346;2022-08-03T12:11:10;34.20;86.80
12588;DHT22;6359;51.450;7.346;2022-08-03T12:13:38;34.30;88.00
12588;DHT22;6359;51.450;7.346;2022-08-03T12:16:07;33.70;87.60
12588;DHT22;6359;51.450;7.346;2022-08-03T12:18:35;33.80;90.00
12588;DHT22;6359;51.450;7.346;2022-08-03T12:21:07;33.90;86.40
12588;DHT22;6359;51.450;7.346;2022-08-03T12:23:34;33.70;90.00
12588;DHT22;6359;51.450;7.346;2022-08-03T12:26:02;33.90;88.70
12588;DHT22;6359;51.450;7.346;2022-08-03T12:28:29;33.80;88.40
12588;DHT22;6359;51.450;7.346;2022-08-03T12:31:01;33.80;87.70
12588;DHT22;6359;51.450;7.346;2022-08-03T12:33:29;33.80;90.80
12588;DHT22;6359;51.450;7.346;2022-08-03T12:36:04;33.70;89.60
12588;DHT22;6359;51.450;7.346;2022-08-03T12:38:33;33.60;86.40
12588;DHT22;6359;51.450;7.346;2022-08-03T12:41:03;34.20;90.10
12588;DHT22;6359;51.450;7.346;2022-08-03T12:43:30;34.10;90.10
12588;DHT22;6359;51.450;7.346;2022-08-03T12:46:12;33.90;87.80
12588;DHT22;6359;51.450;7.346;2022-08-03T12:49:04;33.20;76.00
12588;DHT22;6359;51.450;7.346;2022-08-03T12:51:32;33.30;77.10
12588;DHT22;6359;51.450;7.346;2022-08-03T12:54:00;33.40;90.40
12588;DHT22;6359;51.450;7.346;2022-08-03T12:56:28;33.50;84.50
12588;DHT22;6359;51.450;7.346;2022-08-03T12:58:55;33.50;72.50
12588;DHT22;6359;51.450;7.346;2022-08-03T13:01:22;33.60;71.70
12588;DHT22;6359;51.450;7.346;2022-08-03T13:03:51;33.40;68.70
12588;DHT22;6359;51.450;7.346;2022-08-03T13:06:21;33.20;68.60
12588;DHT22;6359;51.450;7.346;2022-08-03T13:08:48;33.00;71.90
12588;DHT22;6359;51.450;7.346;2022-08-03T13:11:20;32.80;69.80
12588;DHT22;6359;51.450;7.346;2022-08-03T13:13:48;33.00;71.70
12588;DHT22;6359;51.450;7.346;2022-08-03T13:16:15;32.90;70.70
12588;DHT22;6359;51.450;7.346;2022-08-03T13:18:42;32.80;70.30
12588;DHT22;6359;51.450;7.346;2022-08-03T13:21:12;32.70;68.90
12588;DHT22;6359;51.450;7.346;2022-08-03T13:23:42;32.80;71.10
12588;DHT22;6359;51.450;7.346;2022-08-03T13:26:09;32.90;72.10
12588;DHT22;6359;51.450;7.346;2022-08-03T13:28:36;33.00;71.80
12588;DHT22;6359;51.450;7.346;2022-08-03T13:31:04;32.80;70.80
12588;DHT22;6359;51.450;7.346;2022-08-03T13:33:35;32.60;72.90
12588;DHT22;6359;51.450;7.346;2022-08-03T13:36:06;32.60;71.90
12588;DHT22;6359;51.450;7.346;2022-08-03T13:38:45;32.70;72.50
12588;DHT22;6359;51.450;7.346;2022-08-03T13:41:15;32.60;69.50
12588;DHT22;6359;51.450;7.346;2022-08-03T13:43:45;32.60;72.90
12588;DHT22;6359;51.450;7.346;2022-08-03T13:46:33;32.80;73.40
12588;DHT22;6359;51.450;7.346;2022-08-03T13:49:08;32.80;71.10
12588;DHT22;6359;51.450;7.346;2022-08-03T13:51:35;32.80;71.30
12588;DHT22;6359;51.450;7.346;2022-08-03T13:54:03;32.80;72.00
12588;DHT22;6359;51.450;7.346;2022-08-03T13:56:30;32.80;71.40
12588;DHT22;6359;51.450;7.346;2022-08-03T13:58:58;32.60;71.90
12588;DHT22;6359;51.450;7.346;2022-08-03T14:01:25;32.40;71.80
12588;DHT22;6359;51.450;7.346;2022-08-03T14:03:52;32.50;70.40
12588;DHT22;6359;51.450;7.346;2022-08-03T14:06:21;32.50;72.00
12588;DHT22;6359;51.450;7.346;2022-08-03T14:08:48;32.50;76.50
12588;DHT22;6359;51.450;7.346;2022-08-03T14:11:17;32.60;71.90
12588;DHT22;6359;51.450;7.346;2022-08-03T14:13:44;32.70;70.80
12588;DHT22;6359;51.450;7.346;2022-08-03T14:16:11;32.90;73.60
12588;DHT22;6359;51.450;7.346;2022-08-03T14:18:38;32.80;72.20
12588;DHT22;6359;51.450;7.346;2022-08-03T14:21:06;32.90;70.90
12588;DHT22;6359;51.450;7.346;2022-08-03T14:23:34;32.80;70.00
12588;DHT22;6359;51.450;7.346;2022-08-03T14:26:02;32.80;71.30
12588;DHT22;6359;51.450;7.346;2022-08-03T14:28:30;32.90;70.00
12588;DHT22;6359;51.450;7.346;2022-08-03T14:30:57;32.90;71.00
12588;DHT22;6359;51.450;7.346;2022-08-03T14:33:25;33.00;70.60
12588;DHT22;6359;51.450;7.346;2022-08-03T14:35:53;32.90;71.00
12588;DHT22;6359;51.450;7.346;2022-08-03T14:38:20;33.10;70.20
12588;DHT22;6359;51.450;7.346;2022-08-03T14:40:48;33.40;69.90
12588;DHT22;6359;51.450;7.346;2022-08-03T14:43:15;33.40;68.20
12588;DHT22;6359;51.450;7.346;2022-08-03T14:45:46;33.40;67.80
12588;DHT22;6359;51.450;7.346;2022-08-03T14:48:13;33.30;68.10
12588;DHT22;6359;51.450;7.346;2022-08-03T14:50:40;33.10;68.00
12588;DHT22;6359;51.450;7.346;2022-08-03T14:53:06;33.10;69.90
12588;DHT22;6359;51.450;7.346;2022-08-03T14:55:33;33.20;69.80
12588;DHT22;6359;51.450;7.346;2022-08-03T14:58:00;33.20;67.20
12588;DHT22;6359;51.450;7.346;2022-08-03T15:00:30;33.30;70.70
12588;DHT22;6359;51.450;7.346;2022-08-03T15:02:58;33.40;67.40
12588;DHT22;6359;51.450;7.346;2022-08-03T15:05:25;33.50;68.80
12588;DHT22;6359;51.450;7.346;2022-08-03T15:07:52;33.30;67.30
12588;DHT22;6359;51.450;7.346;2022-08-03T15:10:19;33.30;68.30
12588;DHT22;6359;51.450;7.346;2022-08-03T15:12:46;33.20;67.90
12588;DHT22;6359;51.450;7.346;2022-08-03T15:15:13;33.00;68.50
12588;DHT22;6359;51.450;7.346;2022-08-03T15:17:40;33.00;69.90
12588;DHT22;6359;51.450;7.346;2022-08-03T15:20:10;32.80;68.50
12588;DHT22;6359;51.450;7.346;2022-08-03T15:22:38;32.90;68.70
12588;DHT22;6359;51.450;7.346;2022-08-03T15:25:06;32.70;68.10
12588;DHT22;6359;51.450;7.346;2022-08-03T15:27:33;32.40;67.90
12588;DHT22;6359;51.450;7.346;2022-08-03T15:29:59;32.60;68.10
12588;DHT22;6359;51.450;7.346;2022-08-03T15:32:31;32.40;68.60
12588;DHT22;6359;51.450;7.346;2022-08-03T15:34:58;32.60;67.30
12588;DHT22;6359;51.450;7.346;2022-08-03T15:37:27;32.70;67.70
12588;DHT22;6359;51.450;7.346;2022-08-03T15:39:53;32.80;68.80
12588;DHT22;6359;51.450;7.346;2022-08-03T15:42:20;32.80;67.50
12588;DHT22;6359;51.450;7.346;2022-08-03T15:44:47;32.90;66.70
12588;DHT22;6359;51.450;7.346;2022-08-03T15:47:14;32.90;67.30
12588;DHT22;6359;51.450;7.346;2022-08-03T15:49:41;32.80;69.20
12588;DHT22;6359;51.450;7.346;2022-08-03T15:52:08;32.90;69.20
12588;DHT22;6359;51.450;7.346;2022-08-03T15:54:36;32.80;68.70
12588;DHT22;6359;51.450;7.346;2022-08-03T15:57:03;32.70;67.80
12588;DHT22;6359;51.450;7.346;2022-08-03T15:59:30;32.60;66.80
12588;DHT22;6359;51.450;7.346;2022-08-03T16:01:57;32.40;66.40
12588;DHT22;6359;51.450;7.346;2022-08-03T16:04:24;32.00;67.40